Time;durP1;ratioP1;P1;durP2;ratioP2;P2;SDS_P1;SDS_P2;PMS_P1;PMS_P2;Temp;Humidity;BMP_temperature;BMP_pressure;BME280_temperature;BME280_humidity;BME280_pressure;Samples;Min_cycle;Max_cycle;Signal;HPM_P1;HPM_P2
2022/12/16 00:00:30;;;;;;;10.00;7.47;;;-1.10;51.90;;;;;;5011485;28;20504;-76
2022/12/16 00:03:14;;;;;;;8.45;6.40;;;-1.10;51.90;;;;;;5021695;28;20048;-77
2022/12/16 00:06:02;;;;;;;8.25;6.75;;;-1.20;51.70;;;;;;5024370;28;20129;-77
2022/12/16 00:08:47;;;;;;;10.75;6.93;;;-1.20;51.80;;;;;;5024213;28;20124;-76
2022/12/16 00:11:31;;;;;;;7.00;6.30;;;-1.20;51.70;;;;;;5014425;28;20064;-77
2022/12/16 00:14:16;;;;;;;10.02;6.93;;;-1.20;51.70;;;;;;5020996;28;20390;-75
2022/12/16 00:17:01;;;;;;;9.00;6.80;;;-1.20;51.80;;;;;;5013907;28;20119;-78
2022/12/16 00:19:46;;;;;;;10.48;7.38;;;-1.20;51.80;;;;;;5011802;28;20772;-76
2022/12/16 00:22:30;;;;;;;7.75;6.55;;;-1.30;51.60;;;;;;5011206;28;20142;-75
2022/12/16 00:25:15;;;;;;;8.98;6.85;;;-1.30;51.70;;;;;;5021787;28;20081;-75
2022/12/16 00:27:59;;;;;;;11.15;6.80;;;-1.30;51.70;;;;;;5017576;28;20045;-76
2022/12/16 00:30:46;;;;;;;8.00;6.63;;;-1.30;51.70;;;;;;5015505;28;20044;-75
2022/12/16 00:33:31;;;;;;;11.70;7.57;;;-1.30;51.70;;;;;;5028872;28;20117;-75
2022/12/16 00:36:16;;;;;;;8.93;7.18;;;-1.30;51.70;;;;;;5023509;28;20489;-75
2022/12/16 00:39:00;;;;;;;9.18;6.57;;;-1.30;51.70;;;;;;5007493;28;20091;-75
2022/12/16 00:41:46;;;;;;;9.10;6.45;;;-1.30;51.70;;;;;;5022510;28;20036;-75
2022/12/16 00:44:30;;;;;;;8.75;6.80;;;-1.40;51.50;;;;;;5005340;28;20424;-76
2022/12/16 00:47:15;;;;;;;9.25;6.97;;;-1.40;51.50;;;;;;5019233;28;20107;-75
2022/12/16 00:50:00;;;;;;;8.70;6.63;;;-1.40;51.60;;;;;;5019321;28;20095;-75
2022/12/16 00:52:47;;;;;;;8.35;6.97;;;-1.40;51.60;;;;;;5007094;28;20040;-75
2022/12/16 00:55:31;;;;;;;10.13;6.65;;;-1.40;51.60;;;;;;5015457;28;20095;-74
2022/12/16 00:58:16;;;;;;;8.85;7.07;;;-1.40;51.60;;;;;;4995678;28;20056;-75
2022/12/16 01:01:01;;;;;;;9.18;6.60;;;-1.50;51.40;;;;;;5020416;28;20113;-76
2022/12/16 01:03:46;;;;;;;11.02;7.75;;;-1.50;51.40;;;;;;5021842;28;20500;-76
2022/12/16 01:06:30;;;;;;;9.98;7.55;;;-1.50;51.50;;;;;;5022871;28;20048;-75
2022/12/16 01:09:15;;;;;;;8.98;7.85;;;-1.50;51.40;;;;;;5022755;28;20041;-75
2022/12/16 01:11:59;;;;;;;7.68;6.88;;;-1.50;51.40;;;;;;5017398;28;20094;-75
2022/12/16 01:14:44;;;;;;;9.63;7.07;;;-1.50;51.40;;;;;;5020572;28;20099;-76
2022/12/16 01:17:28;;;;;;;9.43;8.10;;;-1.50;51.50;;;;;;5010670;28;20096;-75
2022/12/16 01:20:13;;;;;;;9.65;6.85;;;-1.50;51.50;;;;;;5007882;28;20501;-75
2022/12/16 01:22:58;;;;;;;10.20;8.13;;;-1.50;51.50;;;;;;5016789;28;20044;-76
2022/12/16 01:25:42;;;;;;;9.93;7.35;;;-1.60;51.30;;;;;;5022485;28;20084;-76
2022/12/16 01:28:28;;;;;;;8.95;6.95;;;-1.60;51.30;;;;;;5021671;28;20051;-76
2022/12/16 01:31:15;;;;;;;12.43;7.15;;;-1.60;51.30;;;;;;4999424;28;20060;-76
2022/12/16 01:33:59;;;;;;;9.48;6.70;;;-1.70;51.10;;;;;;5014078;28;20079;-76
2022/12/16 01:36:44;;;;;;;11.35;7.57;;;-1.70;51.20;;;;;;5021970;28;20052;-76
2022/12/16 01:39:29;;;;;;;11.45;7.28;;;-1.70;51.10;;;;;;5014495;28;20103;-76
2022/12/16 01:42:15;;;;;;;9.65;6.97;;;-1.70;51.20;;;;;;4994035;28;20080;-76
2022/12/16 01:45:27;;;;;;;7.53;6.68;;;-1.70;51.20;;;;;;5002485;28;20156;-76
2022/12/16 01:48:28;;;;;;;10.00;7.15;;;-1.70;51.20;;;;;;5008377;28;20092;-76
2022/12/16 01:51:37;;;;;;;10.70;7.90;;;-1.80;51.00;;;;;;5022190;28;20085;-76
2022/12/16 01:54:33;;;;;;;10.70;7.43;;;-1.80;51.00;;;;;;5020855;28;20040;-76
2022/12/16 01:57:25;;;;;;;9.57;7.07;;;-1.80;51.00;;;;;;5010682;28;20049;-76
2022/12/16 02:00:11;;;;;;;10.25;7.65;;;-1.80;51.00;;;;;;4995683;28;20711;-76
2022/12/16 02:02:59;;;;;;;10.52;7.35;;;-1.80;51.00;;;;;;5022829;28;20508;-76
2022/12/16 02:05:45;;;;;;;10.77;7.95;;;-1.90;50.80;;;;;;5021659;28;20112;-75
2022/12/16 02:08:30;;;;;;;12.63;7.72;;;-1.90;50.90;;;;;;5014322;28;20044;-76
2022/12/16 02:11:41;;;;;;;10.63;7.80;;;-1.90;50.90;;;;;;5024460;28;20068;-76
2022/12/16 02:14:52;;;;;;;12.68;8.18;;;-1.90;50.90;;;;;;5017160;28;20029;-76
2022/12/16 02:18:15;;;;;;;10.30;7.85;;;-1.90;50.90;;;;;;5020427;28;20063;-76
2022/12/16 02:21:29;;;;;;;10.82;8.05;;;-1.90;50.90;;;;;;5027038;28;20091;-76
2022/12/16 02:24:32;;;;;;;9.23;7.25;;;-1.90;50.90;;;;;;5022757;28;20040;-76
2022/12/16 02:27:35;;;;;;;9.25;7.18;;;-1.90;50.90;;;;;;5024146;28;20109;-76
2022/12/16 02:30:44;;;;;;;11.23;7.47;;;-1.90;50.80;;;;;;5015036;28;20053;-76
2022/12/16 02:33:37;;;;;;;9.13;7.47;;;-2.00;50.70;;;;;;5029170;28;20051;-76
2022/12/16 02:36:36;;;;;;;10.05;7.40;;;-2.00;50.70;;;;;;5010570;28;20036;-76
2022/12/16 02:39:27;;;;;;;10.13;7.75;;;-2.00;51.30;;;;;;5014372;28;20060;-76
2022/12/16 02:42:25;;;;;;;13.38;8.25;;;-2.10;50.50;;;;;;5014007;28;20144;-76
2022/12/16 02:45:19;;;;;;;11.13;7.80;;;-2.10;50.50;;;;;;5020353;28;20304;-76
2022/12/16 02:48:03;;;;;;;13.20;8.75;;;-2.10;50.60;;;;;;5015976;28;20111;-76
2022/12/16 02:50:50;;;;;;;10.32;7.25;;;-2.10;50.60;;;;;;5019236;28;20040;-76
2022/12/16 02:53:37;;;;;;;10.63;8.43;;;-2.10;50.60;;;;;;5027374;28;20056;-76
2022/12/16 02:56:31;;;;;;;7.80;6.93;;;-2.10;50.60;;;;;;5019483;28;20037;-76
2022/12/16 02:59:22;;;;;;;10.45;8.13;;;-2.10;50.60;;;;;;5019945;28;20057;-75
2022/12/16 03:02:25;;;;;;;9.57;7.72;;;-2.10;50.60;;;;;;5017149;28;20052;-75
2022/12/16 03:05:47;;;;;;;11.80;8.55;;;-2.20;50.40;;;;;;5015993;28;20098;-76
2022/12/16 03:08:35;;;;;;;8.88;7.57;;;-2.20;50.40;;;;;;5011258;28;20040;-77
2022/12/16 03:11:20;;;;;;;11.88;8.25;;;-2.20;50.40;;;;;;5027301;28;20114;-77
2022/12/16 03:14:07;;;;;;;10.02;7.90;;;-2.20;50.40;;;;;;5016919;28;20132;-75
2022/12/16 03:16:52;;;;;;;11.77;8.23;;;-2.20;50.50;;;;;;5012093;28;20126;-76
2022/12/16 03:19:39;;;;;;;9.38;8.23;;;-2.20;50.40;;;;;;5015752;28;20044;-77
2022/12/16 03:22:28;;;;;;;15.40;8.55;;;-2.20;50.40;;;;;;5017839;28;20088;-76
2022/12/16 03:25:13;;;;;;;12.85;9.32;;;-2.20;50.50;;;;;;5020985;28;20100;-75
2022/12/16 03:28:36;;;;;;;12.23;8.43;;;-2.20;50.40;;;;;;5027070;28;20416;-76
2022/12/16 03:31:40;;;;;;;11.93;7.90;;;-2.20;50.40;;;;;;5002085;28;20119;-76
2022/12/16 03:34:55;;;;;;;10.93;8.77;;;-2.20;50.40;;;;;;5020434;28;20118;-75
2022/12/16 03:37:42;;;;;;;10.32;8.30;;;-2.30;50.20;;;;;;5016245;28;20091;-76
2022/12/16 03:40:27;;;;;;;10.52;7.70;;;-2.30;50.20;;;;;;5027510;28;20451;-75
2022/12/16 03:43:14;;;;;;;9.82;8.20;;;-2.30;50.20;;;;;;5020654;28;20044;-75
2022/12/16 03:46:03;;;;;;;13.98;10.10;;;-2.30;50.20;;;;;;5020465;28;20044;-75
2022/12/16 03:48:51;;;;;;;11.68;8.63;;;-2.30;50.20;;;;;;5018394;28;20043;-74
2022/12/16 03:51:35;;;;;;;11.52;8.52;;;-2.30;50.80;;;;;;5022699;28;20095;-75
2022/12/16 03:54:22;;;;;;;12.15;7.90;;;-2.30;50.20;;;;;;5026568;28;20044;-75
2022/12/16 03:57:06;;;;;;;10.52;7.80;;;-2.30;50.20;;;;;;5016021;28;20515;-75
2022/12/16 03:59:51;;;;;;;10.73;8.45;;;-2.30;50.20;;;;;;5018270;28;20572;-75
2022/12/16 04:02:36;;;;;;;11.93;8.63;;;-2.40;50.10;;;;;;5026854;28;20051;-75
2022/12/16 04:05:22;;;;;;;11.95;8.60;;;-2.30;50.80;;;;;;5021260;28;20052;-75
2022/12/16 04:08:06;;;;;;;12.35;8.73;;;-2.40;50.10;;;;;;5025111;28;20188;-76
2022/12/16 04:26:12;;;;;;;11.93;8.90;;;-2.40;50.00;;;;;;5025207;28;20041;-75
2022/12/16 04:28:57;;;;;;;11.23;9.07;;;-2.50;49.90;;;;;;5022210;28;20196;-74
2022/12/16 04:31:41;;;;;;;12.23;8.93;;;-2.50;49.90;;;;;;5028877;28;20503;-75
2022/12/16 04:34:27;;;;;;;11.88;8.52;;;-2.50;49.90;;;;;;5014080;28;20045;-75
